Home   Weather   Bahrain   Manama   Past weeks
Flag for Bahrain

Past Weather in Manama, Bahrain — Yesterday and Last 2 Weeks

Currently: 90 °F. Sunny. (Weather station: Bahrain International Airport, Bahrain). See more current weather

Past Weather in Manama — Graph

°F

Manama Temperature Yesterday

Maximum temperature yesterday: 86 °F (at 11:00 am)
Minimum temperature yesterday: 77 °F (at 1:30 am)
Average temperature yesterday: 81 °F

High & Low Weather Summary for the Past Weeks

 TemperatureHumidityPressure
High95 °F (Apr 24, 1:30 pm)94% (Apr 15, 11:00 pm)29.89 "Hg (Apr 15, 11:00 pm)
Low64 °F (Apr 15, 11:00 pm)10% (Apr 24, 1:30 pm)29.59 "Hg (Apr 15, 10:00 pm)
Average80 °F55%29.78 "Hg
* Reported Apr 9 1:00 pm — Apr 24 1:30 pm, Manama. Weather by CustomWeather, © 2024

Note: Actual official high and low records may vary slightly from our data, if they occured in-between our weather recording intervals... More about our weather records

Manama Weather History for the Previous 24 Hours

Scroll right to see more
 ConditionsComfort  
Time TempWeatherWind HumidityBarometerVisibility
1:30 pm
Wed, Apr 24
95 °FPassing clouds.8 mph10%29.65 "HgN/A
1:00 pm93 °FPassing clouds.9 mph11%29.65 "HgN/A
12:30 pm93 °FPassing clouds.12 mph11%29.68 "HgN/A
12:00 pm91 °FSunny.14 mph15%29.68 "Hg10 mi
11:30 am91 °FPassing clouds.14 mph15%29.68 "HgN/A
11:00 am90 °FSunny.14 mph18%29.71 "Hg10 mi
10:00 am86 °FSunny.15 mph24%29.71 "Hg10 mi
9:30 am84 °FSunny.14 mph27%29.71 "Hg10 mi
9:00 am84 °FSunny.12 mph31%29.74 "Hg10 mi
8:30 am82 °FSunny.10 mph35%29.74 "Hg10 mi
8:00 am82 °FPassing clouds.10 mph35%29.74 "HgN/A
7:30 am81 °FSunny.10 mph37%29.74 "Hg10 mi
7:00 am81 °FPassing clouds.10 mph32%29.74 "HgN/A
6:30 am81 °FSunny.9 mph32%29.71 "Hg10 mi
6:00 am81 °FPassing clouds.8 mph32%29.71 "HgN/A
5:30 am81 °FSunny.8 mph32%29.71 "Hg10 mi
5:00 am81 °FClear.8 mph30%29.71 "Hg10 mi
4:30 am81 °FPassing clouds.8 mph32%29.71 "HgN/A
4:00 am82 °FClear.9 mph30%29.68 "Hg10 mi
3:30 am82 °FClear.9 mph30%29.68 "Hg10 mi
3:00 am82 °FClear.8 mph32%29.68 "Hg10 mi
2:30 am81 °FPassing clouds.7 mph37%29.68 "HgN/A
2:00 am81 °FPassing clouds.7 mph48%29.71 "HgN/A
1:00 am81 °FPassing clouds.7 mph51%29.71 "HgN/A
12:00 am81 °FClear.9 mph48%29.71 "Hg10 mi
11:00 pm
Tue, Apr 23
82 °FClear.5 mph37%29.74 "Hg10 mi
10:00 pm81 °FClear.5 mph54%29.74 "Hg10 mi
9:00 pm81 °FPassing clouds.7 mph51%29.74 "HgN/A
8:00 pm81 °FClear.8 mph54%29.74 "Hg10 mi
7:00 pm81 °FClear.9 mph51%29.74 "Hg10 mi
6:00 pm82 °FSunny.12 mph45%29.74 "Hg10 mi
5:00 pm84 °FSunny.12 mph40%29.74 "Hg10 mi
4:00 pm84 °FSunny.14 mph43%29.74 "Hg10 mi
3:00 pm84 °FSunny.16 mph43%29.74 "Hg10 mi
2:00 pm86 °FSunny.18 mph40%29.77 "Hg10 mi
Weather by CustomWeather, © 2024

See weather overview